This is the latest recevied weather packets stored in our database for station/object EA1FBN. If no packets are shown the sender has not sent any weather packets the latest 10 day(s).
| Time | Temp. | Humidity | Pressure | Rain* | Wind** | Luminosity | Snow |
|---|---|---|---|---|---|---|---|
| 1787840953 | 16.67° C | 73% | 1012.5 hPa | 0.25 mm | - | - | - |
| 1787840653 | 16.67° C | 73% | 1012.4 hPa | 0.25 mm | - | - | - |
| 1787840353 | 16.11° C | 75% | 1012.3 hPa | 0.25 mm | - | - | - |
| 1787840053 | 16.11° C | 76% | 1012.3 hPa | 0 mm | - | - | - |
| 1787839753 | 15.56° C | 77% | 1012.3 hPa | 0 mm | - | - | - |
| 1787839453 | 15.56° C | 78% | 1012.2 hPa | 0.25 mm | - | - | - |
| 1787839153 | 15° C | 78% | 1012.2 hPa | 0.25 mm | - | - | - |
| 1787838853 | 14.44° C | 78% | 1012.1 hPa | 0.25 mm | - | - | - |
| 1787838553 | 15° C | 77% | 1012.5 hPa | 0.25 mm | - | - | - |
| 1787838253 | 15° C | 77% | 1012.4 hPa | 0.25 mm | - | - | - |
| 1787837953 | 15° C | 77% | 1012.6 hPa | 0.25 mm | - | - | - |
| 1787837653 | 15° C | 77% | 1012.6 hPa | 0.25 mm | - | - | - |
| 1787837353 | 15° C | 78% | 1012.7 hPa | 0.25 mm | - | - | - |
| 1787837053 | 15° C | 77% | 1012.6 hPa | 0.51 mm | - | - | - |
| 1787836753 | 15° C | 77% | 1012.6 hPa | 0.51 mm | - | - | - |
| 1787836453 | 15° C | 78% | 1012.5 hPa | 0.51 mm | - | - | - |
| 1787836153 | 15° C | 77% | 1012.2 hPa | 0.51 mm | - | - | - |
| 1787835853 | 15° C | 75% | 1012.7 hPa | 0.25 mm | - | - | - |
| 1787835553 | 15.56° C | 74% | 1012.8 hPa | 0.25 mm | - | - | - |
| 1787835253 | 15.56° C | 73% | 1012.6 hPa | 0.25 mm | - | - | - |
| 1787834954 | 16.11° C | 69% | 1012.3 hPa | 0.25 mm | - | - | - |
| 1787834654 | 17.22° C | 64% | 1012 hPa | 0.25 mm | - | - | - |
| 1787834354 | 17.22° C | 63% | 1011.8 hPa | 0.25 mm | - | - | - |
| 1787834053 | 16.67° C | 66% | 1011.6 hPa | 0.25 mm | - | - | - |
| 1787833753 | 17.22° C | 64% | 1011.5 hPa | 0.25 mm | - | - | - |
* Rain latest hour (hover to see other rain measurements)
** Current wind speed in m/s (hover to see current wind gust speed)